createdAt,value
2023-04-22T00:01:55.858Z,7.73
2023-04-22T00:04:22.568Z,7.68
2023-04-22T00:06:49.256Z,7.61
2023-04-22T00:09:15.826Z,7.54
2023-04-22T00:11:42.270Z,7.49
2023-04-22T00:14:08.714Z,7.46
2023-04-22T00:16:35.294Z,7.46
2023-04-22T00:19:01.800Z,7.46
2023-04-22T00:21:28.584Z,7.44
2023-04-22T00:23:55.079Z,7.43
2023-04-22T00:26:21.554Z,7.43
2023-04-22T00:28:48.036Z,7.41
2023-04-22T00:31:14.479Z,7.35
2023-04-22T00:33:41.052Z,7.30
2023-04-22T00:36:07.797Z,7.30
2023-04-22T00:38:34.260Z,7.28
2023-04-22T00:41:00.824Z,7.21
2023-04-22T00:43:27.269Z,7.19
2023-04-22T00:45:53.866Z,7.16
2023-04-22T00:48:20.896Z,7.15
2023-04-22T00:50:47.405Z,7.10
2023-04-22T00:53:13.868Z,7.08
2023-04-22T00:55:40.432Z,7.03
2023-04-22T00:58:06.978Z,7.00
2023-04-22T01:00:33.414Z,6.93
2023-04-22T01:03:00.234Z,6.89
2023-04-22T01:05:28.976Z,6.89
2023-04-22T01:07:55.474Z,6.93
2023-04-22T01:10:22.028Z,6.97
2023-04-22T01:12:48.510Z,6.97
2023-04-22T01:15:14.989Z,6.96
2023-04-22T01:17:41.613Z,6.94
2023-04-22T01:20:10.575Z,6.96
2023-04-22T01:22:41.826Z,6.95
2023-04-22T01:25:12.347Z,6.94
2023-04-22T01:27:39.653Z,6.95
2023-04-22T01:30:07.658Z,6.93
2023-04-22T01:32:34.293Z,6.92
2023-04-22T01:35:00.829Z,6.89
2023-04-22T01:37:28.670Z,6.94
2023-04-22T01:39:55.595Z,6.94
2023-04-22T01:42:22.319Z,6.94
2023-04-22T01:44:48.757Z,6.96
2023-04-22T01:47:15.288Z,6.96
2023-04-22T01:49:42.380Z,6.97
2023-04-22T01:52:09.012Z,6.95
2023-04-22T01:54:35.772Z,6.99
2023-04-22T01:57:10.016Z,6.99
2023-04-22T01:59:36.623Z,7.02
2023-04-22T02:02:03.220Z,7.03
2023-04-22T02:04:29.723Z,7.04
2023-04-22T02:06:56.228Z,7.08
2023-04-22T02:09:22.686Z,7.10
2023-04-22T02:11:49.107Z,7.10
2023-04-22T02:14:15.575Z,7.09
2023-04-22T02:16:42.435Z,7.09
2023-04-22T02:19:08.936Z,7.11
2023-04-22T02:21:35.542Z,7.09
2023-04-22T02:24:02.020Z,7.08
2023-04-22T02:26:28.684Z,7.03
2023-04-22T02:28:55.111Z,7.05
2023-04-22T02:31:21.618Z,7.05
2023-04-22T02:33:48.065Z,7.09
2023-04-22T02:36:14.515Z,7.09
2023-04-22T02:38:40.963Z,7.11
2023-04-22T02:41:07.478Z,7.11
2023-04-22T02:43:33.929Z,7.12
2023-04-22T02:46:00.392Z,7.11
2023-04-22T02:48:26.852Z,7.08
2023-04-22T02:50:53.358Z,7.09
2023-04-22T02:53:19.785Z,7.09
2023-04-22T02:55:46.249Z,7.08
2023-04-22T02:58:12.741Z,7.10
2023-04-22T03:00:39.297Z,7.11
2023-04-22T03:03:05.971Z,7.12
2023-04-22T03:05:32.486Z,7.12
2023-04-22T03:07:58.912Z,7.14
2023-04-22T03:10:25.330Z,7.14
2023-04-22T03:12:51.781Z,7.15
2023-04-22T03:15:21.219Z,7.15
2023-04-22T03:17:48.281Z,7.17
2023-04-22T03:20:15.137Z,7.17
2023-04-22T03:22:41.680Z,7.16
2023-04-22T03:25:08.558Z,7.15
2023-04-22T03:27:35.014Z,7.13
2023-04-22T03:30:01.577Z,7.13
2023-04-22T03:32:28.092Z,7.14
2023-04-22T03:34:54.550Z,7.14
2023-04-22T03:37:21.017Z,7.12
2023-04-22T03:39:47.476Z,7.08
2023-04-22T03:42:14.629Z,7.11
2023-04-22T03:44:41.396Z,7.12
2023-04-22T03:47:07.860Z,7.14
2023-04-22T03:49:34.856Z,7.14
2023-04-22T03:52:01.410Z,7.12
2023-04-22T03:54:27.931Z,7.15
2023-04-22T03:56:54.398Z,7.16
2023-04-22T03:59:21.128Z,7.13
2023-04-22T04:01:47.651Z,7.14
2023-04-22T04:04:14.220Z,7.13
2023-04-22T04:06:41.017Z,7.15
2023-04-22T04:09:07.528Z,7.14
2023-04-22T04:11:34.005Z,7.13
2023-04-22T04:14:00.443Z,7.14
2023-04-22T04:16:26.982Z,7.15
2023-04-22T04:18:53.481Z,7.15
2023-04-22T04:21:19.915Z,7.13
2023-04-22T04:23:47.210Z,7.16
2023-04-22T04:26:15.075Z,7.18
2023-04-22T04:28:42.123Z,7.15
2023-04-22T04:31:08.680Z,7.19
2023-04-22T04:33:36.945Z,7.19
2023-04-22T04:36:03.500Z,7.18
2023-04-22T04:38:30.203Z,7.20
2023-04-22T04:40:56.665Z,7.22
2023-04-22T04:43:25.788Z,7.21
2023-04-22T04:45:52.725Z,7.21
2023-04-22T04:48:19.943Z,7.22
2023-04-22T04:50:47.164Z,7.23
2023-04-22T04:53:13.737Z,7.23
2023-04-22T04:55:40.245Z,7.27
2023-04-22T04:58:06.998Z,7.30
2023-04-22T05:00:33.437Z,7.27
2023-04-22T05:03:00.043Z,7.33
2023-04-22T05:05:26.714Z,7.36
2023-04-22T05:07:53.850Z,7.39
2023-04-22T05:10:21.352Z,7.43
2023-04-22T05:12:47.909Z,7.47
2023-04-22T05:15:15.269Z,7.49
2023-04-22T05:17:41.817Z,7.53
2023-04-22T05:20:08.678Z,7.57
2023-04-22T05:22:36.622Z,7.59
2023-04-22T05:25:04.526Z,7.60
2023-04-22T05:27:31.170Z,7.62
2023-04-22T05:29:57.600Z,7.64
2023-04-22T05:32:24.244Z,7.66
2023-04-22T05:34:50.874Z,7.72
2023-04-22T05:37:17.312Z,7.75
2023-04-22T05:39:43.778Z,7.76
2023-04-22T05:42:10.250Z,7.78
2023-04-22T05:44:36.713Z,7.83
2023-04-22T05:47:03.332Z,7.87
2023-04-22T05:49:29.767Z,7.90
2023-04-22T05:51:56.231Z,7.94
2023-04-22T05:54:22.686Z,7.98
2023-04-22T05:56:49.263Z,8.01
2023-04-22T05:59:15.996Z,8.07
2023-04-22T06:01:42.818Z,8.11
2023-04-22T06:04:10.165Z,8.18
2023-04-22T06:06:37.201Z,8.21
2023-04-22T06:09:03.863Z,8.27
2023-04-22T06:11:30.410Z,8.32
2023-04-22T06:13:56.926Z,8.37
2023-04-22T06:16:23.554Z,8.43
2023-04-22T06:18:50.025Z,8.48
2023-04-22T06:21:16.666Z,8.57
2023-04-22T06:23:43.373Z,8.63
2023-04-22T06:26:10.001Z,8.69
2023-04-22T06:28:36.469Z,8.76
2023-04-22T06:31:02.977Z,8.84
2023-04-22T06:33:29.431Z,8.88
2023-04-22T06:35:55.863Z,8.96
2023-04-22T06:38:22.380Z,9.04
2023-04-22T06:40:48.888Z,9.11
2023-04-22T06:43:15.486Z,9.18
2023-04-22T06:45:42.484Z,9.24
2023-04-22T06:48:08.941Z,9.34
2023-04-22T06:50:36.016Z,9.41
2023-04-22T06:53:02.458Z,9.49
2023-04-22T06:55:29.069Z,9.57
2023-04-22T06:57:56.175Z,9.63
2023-04-22T07:00:22.784Z,9.74
2023-04-22T07:02:49.337Z,9.79
2023-04-22T07:05:16.326Z,9.87
2023-04-22T07:07:42.889Z,9.93
2023-04-22T07:10:10.818Z,9.96
2023-04-22T07:12:37.306Z,10.06
2023-04-22T07:15:04.046Z,10.14
2023-04-22T07:17:30.648Z,10.29
2023-04-22T07:19:57.157Z,10.42
2023-04-22T07:22:23.654Z,10.58
2023-04-22T07:24:50.142Z,10.72
2023-04-22T07:27:17.280Z,10.88
2023-04-22T07:29:43.796Z,11.05
2023-04-22T07:32:10.791Z,11.19
2023-04-22T07:34:37.341Z,11.37
2023-04-22T07:37:05.001Z,11.56
2023-04-22T07:39:31.606Z,11.71
2023-04-22T07:41:58.592Z,11.87
2023-04-22T07:44:25.199Z,12.04
2023-04-22T07:46:51.835Z,12.31
2023-04-22T07:49:18.417Z,12.56
2023-04-22T07:51:45.531Z,12.85
2023-04-22T07:54:12.351Z,13.08
2023-04-22T07:56:38.886Z,13.26
2023-04-22T07:59:05.987Z,13.49
2023-04-22T08:01:32.626Z,13.68
2023-04-22T08:03:59.426Z,13.89
2023-04-22T08:06:27.978Z,13.96
2023-04-22T08:08:54.572Z,14.10
2023-04-22T08:11:21.198Z,14.21
2023-04-22T08:13:47.714Z,14.23
2023-04-22T08:16:14.357Z,14.22
2023-04-22T08:18:41.100Z,14.21
2023-04-22T08:21:07.688Z,14.36
2023-04-22T08:23:34.289Z,14.56
2023-04-22T08:26:00.817Z,14.75
2023-04-22T08:28:27.323Z,14.87
2023-04-22T08:30:53.956Z,14.98
2023-04-22T08:33:20.498Z,15.10
2023-04-22T08:35:47.924Z,15.24
2023-04-22T08:38:14.421Z,15.39
2023-04-22T08:40:42.384Z,15.54
2023-04-22T08:43:09.665Z,15.64
2023-04-22T08:45:39.490Z,15.75
2023-04-22T08:48:08.663Z,15.92
2023-04-22T08:50:37.495Z,15.93
2023-04-22T08:53:04.077Z,16.08
2023-04-22T08:55:31.413Z,16.20
2023-04-22T08:58:01.086Z,16.27
2023-04-22T09:00:27.782Z,16.28
2023-04-22T09:02:55.192Z,16.40
2023-04-22T09:05:24.771Z,16.62
2023-04-22T09:07:52.865Z,16.84
2023-04-22T09:10:19.975Z,16.90
2023-04-22T09:12:48.587Z,17.02
2023-04-22T09:15:15.178Z,17.08
2023-04-22T09:17:43.306Z,17.01
2023-04-22T09:20:10.478Z,17.10
2023-04-22T09:22:42.686Z,17.20
2023-04-22T09:25:20.527Z,17.22
2023-04-22T09:27:51.049Z,17.43
2023-04-22T09:30:22.699Z,17.54
2023-04-22T09:32:54.671Z,17.57
2023-04-22T09:35:31.042Z,17.74
2023-04-22T09:37:59.075Z,17.75
2023-04-22T09:40:26.841Z,17.79
2023-04-22T09:42:58.553Z,17.82
2023-04-22T09:45:35.868Z,18.11
2023-04-22T09:48:14.259Z,18.31
2023-04-22T09:50:44.550Z,18.47
2023-04-22T09:53:14.320Z,18.52
2023-04-22T09:55:44.651Z,18.72
2023-04-22T09:58:14.062Z,18.73
2023-04-22T10:00:44.904Z,18.83
2023-04-22T10:03:11.685Z,18.90
2023-04-22T10:05:38.939Z,18.95
2023-04-22T10:08:06.890Z,19.08
2023-04-22T10:10:34.361Z,19.11
2023-04-22T10:13:01.600Z,19.21
2023-04-22T10:15:33.394Z,19.18
2023-04-22T10:18:00.909Z,19.40
2023-04-22T10:20:30.098Z,19.61
2023-04-22T10:22:56.899Z,19.45
2023-04-22T10:25:25.783Z,19.50
2023-04-22T10:28:05.963Z,19.55
2023-04-22T10:30:35.258Z,19.44
2023-04-22T10:33:20.682Z,19.46
2023-04-22T10:36:10.418Z,19.41
2023-04-22T10:38:37.981Z,19.31
2023-04-22T10:41:04.832Z,19.29
2023-04-22T10:43:45.562Z,19.24
2023-04-22T10:46:37.609Z,19.33
2023-04-22T10:49:11.971Z,19.66
2023-04-22T10:51:46.234Z,19.97
2023-04-22T10:54:31.545Z,20.19
2023-04-22T10:57:09.652Z,20.22
2023-04-22T10:59:53.016Z,20.27
2023-04-22T11:02:21.552Z,20.37
2023-04-22T11:04:48.981Z,20.45
2023-04-22T11:07:20.378Z,20.47
2023-04-22T11:09:50.929Z,20.42
2023-04-22T11:12:36.006Z,20.88
2023-04-22T11:15:09.067Z,20.91
2023-04-22T11:17:37.482Z,20.99
2023-04-22T11:20:05.959Z,21.03
2023-04-22T11:22:36.944Z,20.85
2023-04-22T11:25:05.479Z,20.73
2023-04-22T11:27:32.853Z,20.70
2023-04-22T11:30:04.595Z,20.36
2023-04-22T11:32:32.158Z,20.60
2023-04-22T11:34:58.689Z,20.41
2023-04-22T11:37:25.371Z,20.53
2023-04-22T11:40:13.796Z,20.65
2023-04-22T11:42:39.705Z,20.63
2023-04-22T11:45:08.102Z,20.69
2023-04-22T11:47:35.601Z,20.47
2023-04-22T11:50:07.121Z,20.22
2023-04-22T11:52:52.173Z,20.06
2023-04-22T11:55:30.110Z,20.18
2023-04-22T11:57:57.956Z,20.22
2023-04-22T12:00:29.716Z,20.08
2023-04-22T12:02:58.909Z,19.72
2023-04-22T12:05:44.055Z,19.57
2023-04-22T12:08:13.692Z,19.68
2023-04-22T12:10:41.876Z,19.55
2023-04-22T12:13:09.158Z,19.33
2023-04-22T12:15:43.113Z,19.52
2023-04-22T12:18:12.201Z,19.57
2023-04-22T12:20:42.553Z,19.54
2023-04-22T12:23:14.382Z,19.60
2023-04-22T12:25:41.803Z,19.65
2023-04-22T12:28:08.819Z,19.78
2023-04-22T12:30:35.454Z,20.24
2023-04-22T12:33:02.208Z,20.61
2023-04-22T12:35:28.698Z,20.92
2023-04-22T12:37:55.239Z,20.79
2023-04-22T12:40:21.831Z,20.53
2023-04-22T12:42:48.313Z,20.34
2023-04-22T12:45:16.153Z,20.34
2023-04-22T12:47:43.026Z,20.27
2023-04-22T12:50:09.728Z,20.14
2023-04-22T12:52:36.366Z,19.98
2023-04-22T12:55:02.895Z,19.89
2023-04-22T12:57:29.431Z,20.09
2023-04-22T12:59:56.593Z,20.47
2023-04-22T13:02:23.297Z,21.26
2023-04-22T13:04:49.830Z,21.41
2023-04-22T13:07:17.473Z,21.58
2023-04-22T13:09:44.354Z,21.48
2023-04-22T13:12:11.236Z,21.58
2023-04-22T13:14:37.819Z,22.11
2023-04-22T13:17:04.469Z,22.32
2023-04-22T13:19:31.860Z,22.14
2023-04-22T13:21:58.465Z,22.36
2023-04-22T13:24:25.024Z,22.46
2023-04-22T13:26:51.600Z,22.51
2023-04-22T13:29:18.285Z,22.23
2023-04-22T13:31:44.908Z,22.01
2023-04-22T13:34:11.952Z,21.82
2023-04-22T13:36:38.472Z,22.00
2023-04-22T13:39:05.837Z,22.31
2023-04-22T13:41:32.352Z,22.28
2023-04-22T13:43:59.660Z,22.48
2023-04-22T13:46:27.232Z,22.30
2023-04-22T13:48:54.755Z,21.89
2023-04-22T13:51:21.219Z,21.78
2023-04-22T13:53:47.721Z,21.46
2023-04-22T13:56:14.519Z,21.24
2023-04-22T13:58:42.438Z,20.93
2023-04-22T14:01:09.329Z,20.90
2023-04-22T14:03:36.550Z,20.69
2023-04-22T14:06:03.846Z,20.41
2023-04-22T14:08:30.637Z,20.16
2023-04-22T14:10:59.276Z,20.08
2023-04-22T14:13:29.858Z,20.10
2023-04-22T14:15:56.566Z,20.08
2023-04-22T14:18:23.382Z,20.05
2023-04-22T14:20:51.326Z,19.80
2023-04-22T14:23:19.153Z,19.84
2023-04-22T14:25:47.149Z,19.43
2023-04-22T14:28:15.190Z,19.29
2023-04-22T14:30:42.811Z,19.17
2023-04-22T14:33:09.591Z,18.82
2023-04-22T14:35:37.246Z,18.95
2023-04-22T14:38:07.141Z,18.93
2023-04-22T14:40:33.880Z,18.73
2023-04-22T14:43:02.623Z,18.71
2023-04-22T14:45:30.724Z,18.31
2023-04-22T14:47:58.066Z,18.14
2023-04-22T14:50:25.620Z,17.95
2023-04-22T14:52:53.434Z,17.91
2023-04-22T14:55:23.809Z,17.98
2023-04-22T14:57:53.538Z,17.79
2023-04-22T15:00:20.096Z,17.72
2023-04-22T15:02:47.046Z,17.72
2023-04-22T15:05:13.717Z,17.65
2023-04-22T15:07:40.372Z,17.47
2023-04-22T15:10:08.027Z,17.40
2023-04-22T15:12:34.618Z,17.14
2023-04-22T15:15:01.262Z,17.36
2023-04-22T15:17:29.019Z,17.29
2023-04-22T15:19:57.674Z,17.28
2023-04-22T15:22:25.300Z,17.10
2023-04-22T15:24:51.919Z,17.24
2023-04-22T15:27:18.566Z,17.13
2023-04-22T15:29:46.475Z,17.27
2023-04-22T15:32:13.043Z,17.28
2023-04-22T15:34:39.987Z,17.17
2023-04-22T15:37:07.898Z,17.17
2023-04-22T15:39:41.689Z,17.16
2023-04-22T15:42:08.477Z,17.13
2023-04-22T15:44:34.956Z,17.04
2023-04-22T15:47:01.548Z,17.01
2023-04-22T15:49:28.097Z,17.06
2023-04-22T15:51:54.646Z,17.03
2023-04-22T15:54:21.113Z,17.07
2023-04-22T15:56:47.663Z,17.13
2023-04-22T15:59:14.201Z,17.12
2023-04-22T16:01:40.963Z,17.12
2023-04-22T16:04:07.873Z,17.11
2023-04-22T16:06:35.629Z,17.14
2023-04-22T16:09:02.115Z,17.22
2023-04-22T16:11:28.565Z,17.15
2023-04-22T16:13:55.011Z,17.16
2023-04-22T16:16:21.776Z,17.21
2023-04-22T16:18:48.549Z,17.11
2023-04-22T16:21:15.116Z,17.09
2023-04-22T16:23:41.652Z,17.08
2023-04-22T16:26:08.206Z,17.10
2023-04-22T16:28:34.658Z,17.11
2023-04-22T16:31:01.257Z,17.04
2023-04-22T16:33:28.038Z,17.04
2023-04-22T16:35:54.495Z,16.94
2023-04-22T16:38:21.073Z,16.97
2023-04-22T16:40:47.581Z,16.91
2023-04-22T16:43:14.069Z,16.95
2023-04-22T16:45:40.708Z,16.85
2023-04-22T16:48:07.259Z,16.71
2023-04-22T16:50:33.804Z,16.67
2023-04-22T16:53:00.274Z,16.69
2023-04-22T16:55:26.775Z,16.63
2023-04-22T16:57:53.316Z,16.34
2023-04-22T17:00:20.849Z,16.36
2023-04-22T17:02:47.392Z,15.98
2023-04-22T17:05:13.963Z,15.84
2023-04-22T17:07:41.531Z,15.76
2023-04-22T17:10:08.655Z,15.57
2023-04-22T17:12:35.213Z,15.27
2023-04-22T17:15:01.753Z,15.08
2023-04-22T17:17:28.506Z,14.78
2023-04-22T17:19:55.131Z,14.67
2023-04-22T17:22:23.441Z,14.47
2023-04-22T17:24:50.249Z,14.31
2023-04-22T17:27:16.809Z,14.21
2023-04-22T17:29:43.367Z,13.99
2023-04-22T17:32:09.967Z,13.92
2023-04-22T17:34:36.546Z,13.97
2023-04-22T17:37:03.154Z,13.81
2023-04-22T17:39:29.728Z,13.75
2023-04-22T17:41:58.288Z,13.68
2023-04-22T17:44:25.696Z,13.62
2023-04-22T17:46:52.539Z,13.57
2023-04-22T17:49:18.988Z,13.48
2023-04-22T17:51:45.652Z,13.39
2023-04-22T17:54:12.206Z,13.37
2023-04-22T17:56:38.997Z,13.35
2023-04-22T17:59:05.610Z,13.28
2023-04-22T18:01:32.371Z,13.29
2023-04-22T18:03:59.407Z,13.21
2023-04-22T18:06:26.081Z,13.18
2023-04-22T18:08:52.636Z,13.12
2023-04-22T18:11:19.364Z,13.08
2023-04-22T18:13:45.864Z,13.10
2023-04-22T18:16:12.360Z,13.13
2023-04-22T18:18:38.914Z,13.05
2023-04-22T18:21:05.630Z,13.08
2023-04-22T18:23:32.165Z,13.05
2023-04-22T18:25:58.628Z,13.12
2023-04-22T18:28:25.130Z,13.08
2023-04-22T18:30:52.171Z,13.06
2023-04-22T18:33:18.746Z,12.88
2023-04-22T18:35:45.232Z,12.98
2023-04-22T18:38:11.774Z,13.04
2023-04-22T18:40:38.351Z,13.03
2023-04-22T18:43:04.827Z,13.09
2023-04-22T18:45:31.259Z,13.02
2023-04-22T18:47:58.902Z,12.99
2023-04-22T18:50:25.572Z,12.93
2023-04-22T18:52:52.797Z,13.04
2023-04-22T18:55:19.441Z,13.03
2023-04-22T18:57:46.239Z,13.02
2023-04-22T19:00:13.339Z,13.02
2023-04-22T19:02:42.277Z,13.10
2023-04-22T19:05:10.016Z,13.07
2023-04-22T19:07:37.232Z,13.07
2023-04-22T19:10:04.076Z,13.04
2023-04-22T19:12:30.524Z,12.99
2023-04-22T19:14:59.640Z,12.99
2023-04-22T19:17:26.931Z,12.98
2023-04-22T19:19:53.458Z,13.04
2023-04-22T19:22:21.018Z,13.00
2023-04-22T19:24:48.176Z,13.02
2023-04-22T19:27:14.900Z,12.99
2023-04-22T19:29:42.864Z,13.06
2023-04-22T19:32:11.502Z,13.07
2023-04-22T19:34:38.639Z,13.10
2023-04-22T19:37:05.274Z,13.02
2023-04-22T19:39:31.831Z,13.01
2023-04-22T19:41:58.642Z,13.08
2023-04-22T19:44:25.509Z,13.03
2023-04-22T19:46:52.906Z,13.04
2023-04-22T19:49:19.968Z,12.98
2023-04-22T19:51:46.746Z,12.80
2023-04-22T19:54:13.574Z,12.65
2023-04-22T19:56:41.389Z,12.50
2023-04-22T19:59:08.611Z,12.33
2023-04-22T20:01:39.773Z,12.23
2023-04-22T20:04:06.730Z,12.13
2023-04-22T20:06:33.844Z,12.10
2023-04-22T20:09:05.888Z,11.90
2023-04-22T20:11:32.893Z,11.98
2023-04-22T20:14:03.326Z,11.93
2023-04-22T20:16:30.892Z,11.90
2023-04-22T20:18:58.400Z,11.93
2023-04-22T20:21:31.883Z,11.87
2023-04-22T20:24:01.088Z,11.79
2023-04-22T20:26:28.266Z,11.84
2023-04-22T20:28:55.013Z,11.80
2023-04-22T20:31:23.449Z,11.70
2023-04-22T20:33:51.065Z,11.77
2023-04-22T20:36:18.804Z,11.70
2023-04-22T20:38:48.825Z,11.64
2023-04-22T20:41:18.825Z,11.71
2023-04-22T20:43:49.585Z,11.68
2023-04-22T20:46:22.694Z,11.62
2023-04-22T20:48:50.323Z,11.65
2023-04-22T20:51:16.812Z,11.60
2023-04-22T20:53:44.089Z,11.59
2023-04-22T20:56:10.532Z,11.58
2023-04-22T20:58:37.075Z,11.53
2023-04-22T21:01:10.281Z,11.35
2023-04-22T21:03:39.631Z,11.49
2023-04-22T21:06:06.827Z,11.42
2023-04-22T21:08:34.778Z,11.46
2023-04-22T21:11:01.474Z,11.44
2023-04-22T21:13:28.867Z,11.46
2023-04-22T21:16:10.486Z,11.45
2023-04-22T21:18:43.861Z,11.39
2023-04-22T21:21:10.919Z,11.35
2023-04-22T21:23:40.474Z,11.24
2023-04-22T21:26:09.774Z,11.20
2023-04-22T21:28:37.300Z,11.28
2023-04-22T21:31:04.091Z,11.31
2023-04-22T21:33:32.782Z,11.31
2023-04-22T21:35:59.335Z,11.22
2023-04-22T21:38:29.242Z,11.28
2023-04-22T21:40:55.763Z,11.16
2023-04-22T21:43:22.311Z,11.10
2023-04-22T21:45:48.816Z,10.96
2023-04-22T21:48:15.617Z,10.87
2023-04-22T21:50:42.092Z,10.92
2023-04-22T21:53:08.926Z,10.86
2023-04-22T21:55:38.865Z,10.91
2023-04-22T21:58:05.368Z,10.82
2023-04-22T22:00:32.497Z,10.75
2023-04-22T22:02:59.018Z,10.74
2023-04-22T22:05:25.841Z,10.77
2023-04-22T22:07:55.385Z,10.68
2023-04-22T22:10:22.559Z,10.58
2023-04-22T22:12:49.274Z,10.36
2023-04-22T22:15:16.295Z,10.39
2023-04-22T22:17:43.682Z,10.44
2023-04-22T22:20:12.527Z,10.36
2023-04-22T22:22:43.035Z,10.32
2023-04-22T22:25:12.129Z,10.25
2023-04-22T22:27:46.973Z,10.28
2023-04-22T22:30:13.880Z,10.25
2023-04-22T22:32:40.711Z,10.32
2023-04-22T22:35:07.891Z,10.25
2023-04-22T22:37:35.019Z,10.23
2023-04-22T22:40:01.760Z,10.25
2023-04-22T22:42:28.281Z,10.27
2023-04-22T22:44:55.674Z,10.31
2023-04-22T22:47:22.182Z,10.36
2023-04-22T22:49:48.741Z,10.33
2023-04-22T22:52:15.247Z,10.36
2023-04-22T22:54:42.182Z,10.28
2023-04-22T22:57:09.145Z,10.32
2023-04-22T22:59:37.009Z,10.38
2023-04-22T23:02:03.958Z,10.43
2023-04-22T23:04:30.692Z,10.33
2023-04-22T23:06:57.368Z,10.21
2023-04-22T23:09:23.866Z,10.24
2023-04-22T23:11:51.799Z,10.14
2023-04-22T23:14:19.440Z,10.00
2023-04-22T23:16:49.058Z,9.98
2023-04-22T23:19:19.610Z,10.02
2023-04-22T23:21:46.697Z,9.98
2023-04-22T23:24:14.757Z,9.98
2023-04-22T23:26:42.466Z,9.90
2023-04-22T23:29:09.480Z,9.89
2023-04-22T23:31:36.362Z,9.94
2023-04-22T23:34:05.465Z,9.92
2023-04-22T23:36:36.336Z,9.85
2023-04-22T23:39:04.280Z,9.84
2023-04-22T23:41:30.822Z,9.86
2023-04-22T23:43:57.302Z,9.82
2023-04-22T23:46:23.876Z,9.78
2023-04-22T23:48:50.515Z,9.76
2023-04-22T23:51:17.193Z,9.72
2023-04-22T23:53:45.354Z,9.72
2023-04-22T23:56:12.678Z,9.69
2023-04-22T23:58:39.464Z,9.73
